Time;durP1;ratioP1;P1;durP2;ratioP2;P2;SDS_P1;SDS_P2;PMS_P1;PMS_P2;Temp;Humidity;BMP_temperature;BMP_pressure;BME280_temperature;BME280_humidity;BME280_pressure;Samples;Min_cycle;Max_cycle;Signal;HPM_P1;HPM_P2
2023/05/08 00:01:43;;;;;;;16.48;14.18;;;;;;;12.36;100.00;101793.88;10525592;28;20039;-78
2023/05/08 00:06:44;;;;;;;19.63;15.25;;;;;;;12.23;100.00;101798.44;10507054;28;20036;-81
2023/05/08 00:11:44;;;;;;;23.50;15.73;;;;;;;12.13;100.00;101790.88;10508955;28;20448;-78
2023/05/08 00:16:45;;;;;;;17.90;14.35;;;;;;;12.10;100.00;101781.13;10527236;28;20043;-79
2023/05/08 00:21:45;;;;;;;18.52;12.80;;;;;;;12.03;100.00;101782.50;10525181;28;20440;-79
2023/05/08 00:26:46;;;;;;;21.70;16.13;;;;;;;11.99;100.00;101785.72;10527778;28;20091;-79
2023/05/08 00:31:46;;;;;;;18.27;14.77;;;;;;;11.84;100.00;101777.00;10512391;28;20070;-79
2023/05/08 00:36:47;;;;;;;21.95;16.77;;;;;;;11.74;100.00;101776.47;10507267;28;20044;-79
2023/05/08 00:41:47;;;;;;;28.08;20.52;;;;;;;11.66;100.00;101780.34;10524307;28;20169;-78
2023/05/08 00:46:48;;;;;;;31.55;22.48;;;;;;;11.58;100.00;101784.25;10524572;28;20434;-79
2023/05/08 00:51:50;;;;;;;29.17;22.55;;;;;;;11.42;100.00;101787.72;10526255;28;20043;-77
2023/05/08 00:56:51;;;;;;;32.22;23.15;;;;;;;11.37;100.00;101787.44;10526383;28;20435;-78
2023/05/08 01:01:52;;;;;;;35.28;24.25;;;;;;;11.31;100.00;101794.94;10489117;28;20127;-78
2023/05/08 01:06:52;;;;;;;37.40;26.23;;;;;;;11.24;100.00;101798.91;10506217;28;20040;-78
2023/05/08 01:12:18;;;;;;;24.70;15.52;;;;;;;11.34;100.00;101805.59;10526347;28;20449;-78
2023/05/08 01:17:40;;;;;;;33.35;23.50;;;;;;;11.39;100.00;101796.28;10486147;28;20454;-78
2023/05/08 01:22:50;;;;;;;28.52;20.63;;;;;;;11.44;100.00;101802.69;10526125;28;20036;-78
2023/05/08 01:28:05;;;;;;;35.17;21.38;;;;;;;11.37;100.00;101789.16;10525679;28;20050;-78
2023/05/08 01:33:29;;;;;;;39.20;28.17;;;;;;;11.26;100.00;101789.44;10515366;28;20036;-78
2023/05/08 01:38:31;;;;;;;36.58;26.67;;;;;;;11.25;100.00;101795.47;10522955;28;20068;-78
2023/05/08 01:43:52;;;;;;;36.53;24.70;;;;;;;11.15;100.00;101790.50;10508268;28;20032;-78
2023/05/08 01:49:10;;;;;;;38.20;22.83;;;;;;;10.93;100.00;101789.19;10513579;28;20387;-78
2023/05/08 01:54:20;;;;;;;36.67;23.48;;;;;;;10.87;100.00;101794.06;10520007;28;20040;-78
2023/05/08 01:59:21;;;;;;;39.15;21.23;;;;;;;10.75;100.00;101791.59;10520484;28;20085;-77
2023/05/08 02:04:21;;;;;;;38.17;23.20;;;;;;;10.73;100.00;101798.44;10502513;28;20376;-77
2023/05/08 02:09:22;;;;;;;37.92;27.20;;;;;;;10.58;100.00;101803.63;10523114;28;20036;-77
2023/05/08 02:14:23;;;;;;;39.15;25.20;;;;;;;10.40;100.00;101811.22;10520544;28;20040;-77
2023/05/08 02:19:23;;;;;;;37.80;26.55;;;;;;;10.38;100.00;101807.56;10515128;28;20051;-77
2023/05/08 02:24:24;;;;;;;41.45;24.90;;;;;;;10.44;100.00;101802.75;10513925;28;20660;-78
2023/05/08 02:29:24;;;;;;;34.78;23.08;;;;;;;10.48;100.00;101804.75;10517826;28;20035;-78
2023/05/08 02:34:25;;;;;;;39.72;23.95;;;;;;;10.58;100.00;101803.63;10511245;28;20123;-77
2023/05/08 02:39:25;;;;;;;42.30;28.80;;;;;;;10.59;100.00;101808.06;10517631;28;20123;-77
2023/05/08 02:44:26;;;;;;;45.78;29.55;;;;;;;10.62;100.00;101803.03;10510690;28;20411;-77
2023/05/08 02:49:31;;;;;;;46.65;32.20;;;;;;;10.67;100.00;101803.28;10532660;28;20564;-78
2023/05/08 02:54:50;;;;;;;46.13;31.10;;;;;;;10.72;100.00;101802.78;10509999;28;20391;-78
2023/05/08 03:00:03;;;;;;;47.00;30.52;;;;;;;10.81;100.00;101802.44;10528792;28;20104;-77
2023/05/08 03:05:15;;;;;;;41.88;29.98;;;;;;;10.82;100.00;101798.13;10529515;28;20037;-77
2023/05/08 03:10:16;;;;;;;36.20;25.48;;;;;;;10.84;100.00;101796.50;10529570;28;20078;-77
2023/05/08 03:15:18;;;;;;;42.50;31.10;;;;;;;10.88;100.00;101798.50;10495387;28;20214;-77
2023/05/08 03:20:18;;;;;;;46.85;29.95;;;;;;;10.93;100.00;101806.63;10519871;28;20047;-77
2023/05/08 03:25:19;;;;;;;41.72;27.63;;;;;;;11.00;100.00;101794.00;10527374;28;20046;-77
2023/05/08 03:30:19;;;;;;;38.28;24.52;;;;;;;11.10;100.00;101792.81;10508692;28;20036;-77
2023/05/08 03:35:20;;;;;;;43.97;31.48;;;;;;;11.12;100.00;101800.78;10527176;28;20040;-77
2023/05/08 03:40:20;;;;;;;36.67;25.85;;;;;;;11.18;100.00;101805.47;10524156;28;20445;-78
2023/05/08 03:45:21;;;;;;;39.88;26.25;;;;;;;11.18;100.00;101793.31;10510871;28;20064;-77
2023/05/08 03:50:22;;;;;;;33.13;23.00;;;;;;;11.22;100.00;101795.28;10507119;28;20127;-77
2023/05/08 03:55:22;;;;;;;34.83;19.70;;;;;;;11.26;100.00;101794.66;10506941;28;20118;-77
2023/05/08 04:00:46;;;;;;;31.25;22.67;;;;;;;11.29;100.00;101796.56;10522833;28;20146;-78
2023/05/08 04:06:02;;;;;;;36.25;24.80;;;;;;;11.33;100.00;101795.91;10519653;28;20032;-77
2023/05/08 04:11:10;;;;;;;36.10;26.05;;;;;;;11.36;100.00;101801.34;10510854;28;20036;-78
2023/05/08 04:16:15;;;;;;;34.25;23.92;;;;;;;11.46;100.00;101806.31;10519816;28;20061;-78
2023/05/08 04:21:18;;;;;;;41.92;26.17;;;;;;;11.57;100.00;101795.56;10508378;28;20040;-79
2023/05/08 04:26:19;;;;;;;54.42;33.63;;;;;;;11.64;100.00;101795.09;10504253;28;20122;-77
2023/05/08 04:31:20;;;;;;;58.45;32.40;;;;;;;11.70;100.00;101792.84;10503193;28;20388;-75
2023/05/08 04:36:20;;;;;;;50.70;28.52;;;;;;;11.77;100.00;101794.09;10494237;28;20063;-77
2023/05/08 04:41:21;;;;;;;74.10;40.22;;;;;;;11.89;100.00;101799.13;10490707;28;20518;-76
2023/05/08 04:46:23;;;;;;;80.93;36.88;;;;;;;12.02;100.00;101800.78;10507319;28;20148;-77
2023/05/08 04:51:23;;;;;;;76.53;38.90;;;;;;;12.11;100.00;101800.38;10507254;28;20043;-76
2023/05/08 04:56:25;;;;;;;89.47;44.30;;;;;;;12.28;100.00;101818.00;10504376;28;20131;-76
2023/05/08 05:01:26;;;;;;;87.35;45.00;;;;;;;12.53;100.00;101811.47;10522515;28;20043;-76
2023/05/08 05:06:26;;;;;;;83.75;46.70;;;;;;;12.73;100.00;101809.03;10523755;28;20127;-76
2023/05/08 05:11:27;;;;;;;96.65;53.67;;;;;;;12.83;100.00;101828.81;10502434;28;20447;-76
2023/05/08 05:16:27;;;;;;;100.32;53.55;;;;;;;12.99;100.00;101826.19;10524842;28;20071;-76
2023/05/08 05:21:28;;;;;;;69.05;42.47;;;;;;;13.15;100.00;101838.41;10520113;28;20131;-76
2023/05/08 05:26:28;;;;;;;79.07;47.08;;;;;;;13.36;100.00;101850.88;10484772;28;20044;-76
2023/05/08 05:31:29;;;;;;;79.60;44.08;;;;;;;13.57;100.00;101852.81;10518713;28;20491;-76
2023/05/08 05:36:29;;;;;;;61.67;41.15;;;;;;;13.64;100.00;101845.34;10521538;28;20036;-76
2023/05/08 05:41:30;;;;;;;58.53;41.08;;;;;;;13.82;100.00;101851.44;10511476;28;20119;-76
2023/05/08 05:46:33;;;;;;;54.95;41.17;;;;;;;14.08;100.00;101858.00;10523421;28;20090;-76
2023/05/08 05:51:34;;;;;;;48.25;33.72;;;;;;;14.41;100.00;101856.91;10521594;28;20063;-82
2023/05/08 05:56:34;;;;;;;43.45;33.97;;;;;;;14.65;100.00;101855.44;10495515;28;22327;-78
2023/05/08 06:01:35;;;;;;;43.22;31.98;;;;;;;14.88;100.00;101853.00;10506824;28;20070;-77
2023/05/08 06:06:35;;;;;;;40.75;28.90;;;;;;;15.10;100.00;101844.34;10510955;28;20044;-77
2023/05/08 06:11:36;;;;;;;40.67;30.90;;;;;;;15.58;100.00;101840.25;10496687;28;20783;-76
2023/05/08 06:16:36;;;;;;;36.50;29.60;;;;;;;15.73;100.00;101841.72;10527502;28;20051;-77
2023/05/08 06:21:38;;;;;;;39.92;31.73;;;;;;;15.45;100.00;101846.72;10525391;28;20075;-76
2023/05/08 06:26:39;;;;;;;47.88;33.10;;;;;;;15.28;100.00;101856.53;10527858;28;20032;-77
2023/05/08 06:31:39;;;;;;;46.97;35.42;;;;;;;15.21;100.00;101862.38;10531505;28;20811;-77
2023/05/08 06:36:40;;;;;;;48.42;37.85;;;;;;;15.22;100.00;101870.34;10518934;28;20064;-79
2023/05/08 06:41:41;;;;;;;48.30;37.72;;;;;;;15.43;100.00;101864.22;10506743;28;20188;-79
2023/05/08 06:46:41;;;;;;;41.88;34.97;;;;;;;15.62;100.00;101867.66;10527753;28;20462;-79
2023/05/08 06:51:41;;;;;;;49.42;36.40;;;;;;;15.75;100.00;101864.69;10511976;28;20040;-76
2023/05/08 06:56:42;;;;;;;41.67;35.08;;;;;;;15.80;100.00;101865.78;10503006;28;20447;-78
2023/05/08 07:01:43;;;;;;;48.83;36.75;;;;;;;15.98;100.00;101865.72;10529080;28;20044;-78
2023/05/08 07:06:43;;;;;;;43.25;32.03;;;;;;;16.26;100.00;101860.63;10508699;28;20157;-78
2023/05/08 07:11:43;;;;;;;38.53;32.70;;;;;;;16.20;100.00;101856.03;10522426;28;20127;-78
2023/05/08 07:16:44;;;;;;;39.05;31.83;;;;;;;16.27;100.00;101873.00;10525272;28;20452;-78
2023/05/08 07:21:45;;;;;;;45.95;33.95;;;;;;;16.28;100.00;101874.81;10510048;28;20510;-79
2023/05/08 07:26:45;;;;;;;48.03;40.22;;;;;;;16.25;100.00;101882.59;10485040;28;20051;-79
2023/05/08 07:31:47;;;;;;;44.47;35.60;;;;;;;16.42;100.00;101880.66;10502825;28;20045;-80
2023/05/08 07:36:49;;;;;;;40.50;34.10;;;;;;;16.49;100.00;101881.78;10508661;28;20557;-84
2023/05/08 07:41:49;;;;;;;40.35;30.58;;;;;;;16.58;100.00;101880.41;10508628;28;20174;-81
2023/05/08 07:46:50;;;;;;;38.85;32.50;;;;;;;16.73;100.00;101882.75;10529728;28;20118;-81
2023/05/08 07:51:51;;;;;;;42.35;33.85;;;;;;;16.83;100.00;101877.81;10512260;28;20036;-82
2023/05/08 07:56:51;;;;;;;34.08;26.80;;;;;;;16.92;100.00;101879.91;10530477;28;20059;-82
2023/05/08 08:01:52;;;;;;;38.78;30.70;;;;;;;17.11;100.00;101879.78;10512462;28;20483;-81
2023/05/08 08:06:52;;;;;;;37.80;30.48;;;;;;;17.23;100.00;101878.44;10528229;28;20111;-81
2023/05/08 08:11:53;;;;;;;37.17;30.60;;;;;;;17.49;100.00;101882.00;10499094;28;20083;-80
2023/05/08 08:16:53;;;;;;;34.42;28.70;;;;;;;18.01;100.00;101882.03;10515930;28;20119;-81
2023/05/08 08:21:54;;;;;;;28.65;24.50;;;;;;;18.67;100.00;101869.97;10501142;28;20128;-81
2023/05/08 08:26:54;;;;;;;48.97;28.73;;;;;;;19.21;100.00;101855.66;10484313;28;20771;-80
2023/05/08 08:31:55;;;;;;;30.33;24.57;;;;;;;20.56;100.00;101855.44;10476752;28;20043;-80
2023/05/08 08:36:55;;;;;;;30.77;25.63;;;;;;;21.40;100.00;101854.50;10510233;28;20123;-81
2023/05/08 08:41:56;;;;;;;25.73;22.73;;;;;;;20.85;100.00;101852.53;10525434;28;20118;-82
2023/05/08 08:46:57;;;;;;;29.33;26.17;;;;;;;19.77;100.00;101858.84;10506105;28;20123;-81
2023/05/08 08:51:59;;;;;;;28.77;24.67;;;;;;;19.52;100.00;101856.47;10528489;28;20081;-82
2023/05/08 08:57:00;;;;;;;29.45;26.20;;;;;;;20.15;100.00;101858.06;10526111;28;20036;-80
2023/05/08 09:02:06;;;;;;;29.37;25.63;;;;;;;20.88;100.00;101855.28;10523949;28;20039;-80
2023/05/08 09:07:07;;;;;;;25.42;21.85;;;;;;;20.48;100.00;101846.41;10496209;28;20170;-87
2023/05/08 09:12:08;;;;;;;28.67;23.08;;;;;;;22.03;100.00;101846.72;10520489;28;20043;-78
2023/05/08 09:17:09;;;;;;;28.50;24.53;;;;;;;24.99;100.00;101832.63;10517566;28;20143;-80
2023/05/08 09:22:09;;;;;;;27.70;23.63;;;;;;;26.73;96.00;101837.94;10485982;28;20464;-78
2023/05/08 09:27:20;;;;;;;22.97;18.87;;;;;;;26.57;93.66;101841.56;10502988;28;20127;-82
2023/05/08 09:32:21;;;;;;;24.10;20.65;;;;;;;26.59;91.57;101847.84;10513025;28;20086;-79
2023/05/08 09:37:21;;;;;;;21.47;19.37;;;;;;;26.88;91.18;101841.47;10507240;28;20032;-79
2023/05/08 09:42:24;;;;;;;23.23;20.83;;;;;;;24.84;100.00;101849.53;10520602;28;20052;-80
2023/05/08 09:47:24;;;;;;;30.95;21.77;;;;;;;24.48;100.00;101843.09;10520473;28;20195;-80
2023/05/08 09:52:28;;;;;;;26.07;23.30;;;;;;;22.99;100.00;101847.13;10503192;28;20065;-78
2023/05/08 09:57:30;;;;;;;26.98;20.73;;;;;;;24.22;100.00;101851.84;10522152;28;20040;-80
2023/05/08 10:02:31;;;;;;;32.55;25.10;;;;;;;24.82;100.00;101848.63;10502162;28;20056;-81
2023/05/08 10:07:36;;;;;;;32.85;24.73;;;;;;;25.65;100.00;101849.72;10518632;28;20585;-84
2023/05/08 10:12:37;;;;;;;35.67;26.55;;;;;;;23.75;100.00;101851.47;10519482;28;20040;-83
2023/05/08 10:17:52;;;;;;;43.03;29.50;;;;;;;24.66;100.00;101850.34;10486237;28;20044;-80
2023/05/08 10:22:53;;;;;;;37.03;28.65;;;;;;;26.82;99.62;101842.34;10515121;28;20533;-79
2023/05/08 10:28:09;;;;;;;35.40;28.63;;;;;;;26.49;97.91;101849.63;10496862;28;20047;-79
2023/05/08 10:33:10;;;;;;;36.97;29.52;;;;;;;23.45;100.00;101849.44;10508306;28;20045;-79
2023/05/08 10:38:13;;;;;;;40.70;31.37;;;;;;;23.12;100.00;101843.72;10482798;28;20369;-80
2023/05/08 10:43:13;;;;;;;42.22;31.80;;;;;;;23.04;100.00;101845.41;10469226;28;20032;-80
2023/05/08 10:48:17;;;;;;;40.57;30.63;;;;;;;22.92;100.00;101847.94;10496460;28;20174;-80
2023/05/08 10:53:35;;;;;;;46.42;34.85;;;;;;;23.96;100.00;101843.63;10522086;28;20051;-80
2023/05/08 10:58:38;;;;;;;35.20;27.23;;;;;;;26.40;92.79;101837.16;10505824;28;20585;-80
2023/05/08 11:03:41;;;;;;;30.77;23.67;;;;;;;26.94;90.51;101834.25;10504566;28;20593;-81
2023/05/08 11:08:51;;;;;;;40.75;31.98;;;;;;;27.54;91.01;101827.63;10499526;28;20033;-80
2023/05/08 11:13:55;;;;;;;37.90;28.23;;;;;;;27.82;84.74;101818.44;10520866;28;20032;-79
2023/05/08 11:19:17;;;;;;;37.00;28.40;;;;;;;27.93;79.34;101821.00;10497239;28;20085;-79
2023/05/08 11:24:17;;;;;;;42.35;32.13;;;;;;;27.40;87.48;101824.13;10522493;28;20040;-79
2023/05/08 11:29:18;;;;;;;42.70;28.20;;;;;;;27.73;85.12;101811.31;10525187;28;20457;-79
2023/05/08 11:34:43;;;;;;;36.30;26.03;;;;;;;27.18;82.16;101808.16;10529775;28;20048;-79
2023/05/08 11:39:43;;;;;;;30.08;25.45;;;;;;;27.40;82.55;101797.25;10528856;28;20051;-78
2023/05/08 11:44:44;;;;;;;31.20;23.93;;;;;;;27.02;80.05;101795.72;10527483;28;20097;-80
2023/05/08 11:49:45;;;;;;;34.10;26.70;;;;;;;28.13;75.60;101794.81;10511252;28;20036;-80
2023/05/08 11:54:45;;;;;;;35.77;27.07;;;;;;;28.95;77.08;101790.19;10512262;28;20439;-81
2023/05/08 11:59:50;;;;;;;27.07;21.57;;;;;;;27.19;72.99;101793.81;10509291;28;20499;-80
2023/05/08 12:04:50;;;;;;;35.67;28.15;;;;;;;25.22;81.01;101789.81;10524652;28;20262;-80
2023/05/08 12:09:51;;;;;;;39.77;26.77;;;;;;;24.51;86.22;101783.38;10522127;28;20551;-77
2023/05/08 12:14:51;;;;;;;33.50;25.90;;;;;;;24.42;88.70;101785.13;10506783;28;20067;-77
2023/05/08 12:19:55;;;;;;;35.70;29.30;;;;;;;24.45;93.87;101778.88;10514998;28;20167;-77
2023/05/08 12:24:55;;;;;;;37.95;28.23;;;;;;;25.48;88.90;101783.63;10525971;28;20464;-78
2023/05/08 12:29:56;;;;;;;35.47;26.20;;;;;;;24.50;89.46;101777.09;10527479;28;20047;-77
2023/05/08 12:34:57;;;;;;;42.27;30.57;;;;;;;23.27;100.00;101778.03;10508571;28;20471;-76
2023/05/08 12:39:57;;;;;;;47.10;29.40;;;;;;;22.46;100.00;101776.25;10506282;28;20494;-78
2023/05/08 12:44:58;;;;;;;39.37;28.60;;;;;;;21.93;100.00;101776.38;10523885;28;20120;-78
2023/05/08 12:49:59;;;;;;;39.87;28.93;;;;;;;21.48;100.00;101778.31;10512711;28;20064;-78
2023/05/08 12:54:59;;;;;;;35.77;28.80;;;;;;;21.33;100.00;101764.72;10526224;28;20480;-78
2023/05/08 13:00:03;;;;;;;38.30;25.87;;;;;;;21.84;100.00;101757.56;10484755;28;20090;-78
2023/05/08 13:05:04;;;;;;;33.00;23.92;;;;;;;22.54;100.00;101746.09;10522801;28;20074;-78
2023/05/08 13:10:06;;;;;;;31.60;21.80;;;;;;;22.65;100.00;101746.25;10522081;28;20181;-77
2023/05/08 13:15:07;;;;;;;;;;;;;;;22.85;100.00;101745.56;10525111;28;20028;-78
2023/05/08 13:20:08;;;;;;;34.15;23.77;;;;;;;22.38;100.00;101741.44;10524134;28;20375;-79
2023/05/08 13:25:08;;;;;;;38.05;24.10;;;;;;;;;;10505080;28;20049;-78
2023/05/08 13:30:09;;;;;;;37.47;25.80;;;;;;;21.36;100.00;101736.38;10524290;28;20376;-77
2023/05/08 13:35:10;;;;;;;28.17;19.63;;;;;;;21.20;100.00;101736.97;10505802;28;20044;-78
2023/05/08 13:40:10;;;;;;;38.13;23.83;;;;;;;21.01;100.00;101734.00;10524231;28;20064;-77
2023/05/08 13:45:13;;;;;;;26.20;19.03;;;;;;;20.89;100.00;101728.44;10515683;28;20191;-77
2023/05/08 13:50:14;;;;;;;33.65;25.70;;;;;;;20.67;100.00;101726.25;10501994;28;20376;-77
2023/05/08 13:55:15;;;;;;;34.10;26.20;;;;;;;20.27;100.00;101717.47;10503830;28;20028;-81
2023/05/08 14:00:16;;;;;;;28.13;23.57;;;;;;;19.93;100.00;101714.97;10523694;28;20036;-80
2023/05/08 14:05:16;;;;;;;28.57;22.33;;;;;;;19.78;100.00;101715.50;10511181;28;20063;-79
2023/05/08 14:10:17;;;;;;;33.13;23.13;;;;;;;19.67;100.00;101715.22;10503880;28;20571;-79
2023/05/08 14:15:17;;;;;;;31.87;22.53;;;;;;;19.60;100.00;101710.63;10507731;28;20059;-80
2023/05/08 14:20:18;;;;;;;26.60;21.88;;;;;;;19.56;100.00;101713.19;10521332;28;20056;-80
2023/05/08 14:25:18;;;;;;;22.67;17.02;;;;;;;19.47;100.00;101730.69;10489980;28;20044;-80
2023/05/08 14:30:19;;;;;;;28.30;20.60;;;;;;;19.44;100.00;101714.69;10495316;28;20032;-80
2023/05/08 14:35:19;;;;;;;29.60;23.00;;;;;;;19.45;100.00;101715.56;10530880;28;20038;-77
2023/05/08 14:40:20;;;;;;;29.98;22.85;;;;;;;18.93;100.00;101714.25;10529465;28;20078;-78
2023/05/08 14:45:20;;;;;;;37.93;25.13;;;;;;;18.54;100.00;101722.91;10531554;28;20101;-78
2023/05/08 14:50:22;;;;;;;50.63;33.70;;;;;;;18.33;100.00;101726.75;10530922;28;20038;-78
2023/05/08 14:55:23;;;;;;;38.00;28.83;;;;;;;18.20;100.00;101728.13;10528874;28;20040;-77
2023/05/08 15:00:24;;;;;;;44.22;30.15;;;;;;;18.15;100.00;101723.53;10512254;28;20036;-77
2023/05/08 15:05:24;;;;;;;37.67;29.35;;;;;;;18.15;100.00;101728.84;10517866;28;20067;-79
2023/05/08 15:10:25;;;;;;;43.50;31.65;;;;;;;18.16;100.00;101728.00;10524756;28;20513;-77
2023/05/08 15:15:25;;;;;;;28.07;22.63;;;;;;;18.23;100.00;101726.41;10522319;28;20116;-78
2023/05/08 15:20:26;;;;;;;25.58;20.50;;;;;;;18.54;100.00;101729.94;10529747;28;20632;-78
2023/05/08 15:25:26;;;;;;;26.63;19.13;;;;;;;19.21;100.00;101720.31;10527638;28;20155;-78
2023/05/08 15:30:27;;;;;;;20.50;15.07;;;;;;;20.03;100.00;101704.53;10524970;28;20044;-78
2023/05/08 15:35:27;;;;;;;19.20;15.50;;;;;;;20.44;100.00;101700.97;10528342;28;20132;-78
2023/05/08 15:40:28;;;;;;;17.43;15.13;;;;;;;20.28;100.00;101692.69;10528657;28;20039;-78
2023/05/08 15:45:28;;;;;;;19.80;16.23;;;;;;;20.03;100.00;101686.84;10525459;28;20131;-78
2023/05/08 15:50:29;;;;;;;16.73;12.97;;;;;;;19.97;100.00;101694.69;10525551;28;20112;-78
2023/05/08 15:55:29;;;;;;;15.90;12.47;;;;;;;19.74;100.00;101689.72;10527365;28;20119;-79
2023/05/08 16:00:30;;;;;;;14.10;9.80;;;;;;;19.62;100.00;101686.78;10521659;28;20114;-78
2023/05/08 16:05:31;;;;;;;14.40;9.33;;;;;;;19.34;100.00;101694.97;10525808;28;20044;-80
2023/05/08 16:10:31;;;;;;;32.57;11.80;;;;;;;19.15;100.00;101692.72;10523615;28;20539;-80
2023/05/08 16:15:32;;;;;;;12.73;9.23;;;;;;;18.99;100.00;101696.75;10510790;28;20117;-80
2023/05/08 16:20:32;;;;;;;16.52;10.55;;;;;;;18.95;100.00;101703.69;10513016;28;20051;-80
2023/05/08 16:25:33;;;;;;;11.40;9.20;;;;;;;18.92;100.00;101699.19;10526587;28;20052;-81
2023/05/08 16:30:33;;;;;;;12.63;10.00;;;;;;;18.90;100.00;101694.69;10507553;28;20830;-80
2023/05/08 16:35:33;;;;;;;17.10;12.40;;;;;;;18.91;100.00;101701.81;10526057;28;20381;-80
2023/05/08 16:40:34;;;;;;;16.25;10.80;;;;;;;18.89;100.00;101693.81;10514222;28;20162;-83
2023/05/08 16:45:35;;;;;;;12.37;10.23;;;;;;;18.88;100.00;101684.06;10496535;28;20075;-79
2023/05/08 16:50:35;;;;;;;18.70;15.13;;;;;;;18.92;100.00;101690.34;10510189;28;20070;-79
2023/05/08 16:55:36;;;;;;;14.57;10.13;;;;;;;18.95;100.00;101686.88;10526794;28;20181;-80
2023/05/08 17:00:36;;;;;;;18.23;13.13;;;;;;;18.89;100.00;101682.28;10509457;28;20064;-80
2023/05/08 17:05:37;;;;;;;19.77;14.83;;;;;;;18.83;100.00;101676.81;10521668;28;20048;-82
2023/05/08 17:10:40;;;;;;;16.07;12.33;;;;;;;18.81;100.00;101687.41;10510413;28;20123;-83
2023/05/08 17:15:41;;;;;;;18.95;13.85;;;;;;;18.76;100.00;101681.97;10514369;28;20067;-83
2023/05/08 17:20:41;;;;;;;17.63;11.60;;;;;;;18.68;100.00;101687.94;10523442;28;20062;-86
2023/05/08 17:25:42;;;;;;;15.43;11.40;;;;;;;18.55;100.00;101684.03;10521249;28;21795;-81
2023/05/08 17:30:42;;;;;;;14.80;12.20;;;;;;;18.46;100.00;101696.19;10521749;28;20048;-81
2023/05/08 17:35:43;;;;;;;14.27;10.55;;;;;;;18.41;100.00;101691.63;10524985;28;20124;-83
2023/05/08 17:40:43;;;;;;;17.83;11.82;;;;;;;18.26;100.00;101679.72;10484685;28;20056;-81
2023/05/08 17:45:44;;;;;;;15.38;9.90;;;;;;;18.21;100.00;101676.03;10494180;28;20505;-83
2023/05/08 17:50:45;;;;;;;11.68;8.75;;;;;;;18.15;100.00;101681.16;10507293;28;20032;-83
2023/05/08 17:55:46;;;;;;;15.23;11.17;;;;;;;18.01;100.00;101684.28;10506694;28;20070;-83
2023/05/08 18:00:46;;;;;;;15.60;11.38;;;;;;;17.86;100.00;101684.69;10515526;28;20130;-82
2023/05/08 18:05:47;;;;;;;12.90;9.48;;;;;;;17.75;100.00;101687.00;10505022;28;20127;-83
2023/05/08 18:10:47;;;;;;;16.70;12.25;;;;;;;17.63;100.00;101693.66;10523829;28;20123;-84
2023/05/08 18:15:48;;;;;;;12.40;9.32;;;;;;;17.53;100.00;101700.41;10520779;28;20076;-82
2023/05/08 18:20:48;;;;;;;12.55;9.85;;;;;;;17.42;100.00;101702.69;10510137;28;20446;-82
2023/05/08 18:25:49;;;;;;;13.35;9.88;;;;;;;17.27;100.00;101698.69;10499281;28;20044;-81
2023/05/08 18:30:49;;;;;;;26.75;18.48;;;;;;;17.29;100.00;101701.41;10513878;28;20036;-81
2023/05/08 18:35:50;;;;;;;32.35;23.60;;;;;;;17.32;100.00;101705.03;10496198;28;20170;-81
2023/05/08 18:40:51;;;;;;;24.42;17.85;;;;;;;17.03;100.00;101704.94;10500570;28;20040;-81
2023/05/08 18:45:51;;;;;;;28.17;19.02;;;;;;;16.90;100.00;101712.38;10504576;28;20788;-81
2023/05/08 18:50:52;;;;;;;34.38;24.83;;;;;;;16.76;100.00;101712.81;10500352;28;20071;-83
2023/05/08 18:55:52;;;;;;;51.70;24.52;;;;;;;16.59;100.00;101710.44;10505019;28;20115;-90
2023/05/08 19:00:56;;;;;;;42.20;26.38;;;;;;;16.36;100.00;101704.31;10497530;28;20141;-83
2023/05/08 19:05:57;;;;;;;34.08;24.08;;;;;;;16.20;100.00;101708.13;10493996;28;20105;-85
2023/05/08 19:10:57;;;;;;;37.00;25.17;;;;;;;15.96;100.00;101701.06;10521007;28;20055;-85
2023/05/08 19:15:58;;;;;;;36.65;23.42;;;;;;;15.81;100.00;101697.78;10525602;28;20132;-85
2023/05/08 19:20:59;;;;;;;37.05;23.40;;;;;;;15.76;100.00;101700.22;10494528;28;20123;-85
2023/05/08 19:26:00;;;;;;;27.48;21.67;;;;;;;15.74;100.00;101696.63;10524520;28;20446;-86
2023/05/08 19:31:00;;;;;;;37.17;24.05;;;;;;;15.66;100.00;101703.34;10511431;28;20046;-85
2023/05/08 19:36:01;;;;;;;28.30;19.85;;;;;;;15.71;100.00;101717.63;10527220;28;20055;-86
2023/05/08 19:41:01;;;;;;;34.25;21.88;;;;;;;15.76;100.00;101720.47;10529386;28;20111;-85
2023/05/08 19:46:02;;;;;;;27.73;18.42;;;;;;;15.79;100.00;101721.47;10525752;28;20047;-85
2023/05/08 19:51:06;;;;;;;27.10;19.33;;;;;;;15.62;100.00;101723.44;10526307;28;20044;-83
2023/05/08 19:56:07;;;;;;;26.08;19.75;;;;;;;15.56;100.00;101725.84;10492862;28;20044;-84
2023/05/08 20:01:07;;;;;;;25.02;17.52;;;;;;;15.46;100.00;101723.66;10509087;28;20046;-83
2023/05/08 20:06:08;;;;;;;22.13;18.08;;;;;;;15.34;100.00;101724.94;10508753;28;20032;-83
2023/05/08 20:11:10;;;;;;;27.80;18.30;;;;;;;15.32;100.00;101738.88;10527142;28;20593;-83
2023/05/08 20:16:11;;;;;;;30.90;20.90;;;;;;;15.34;100.00;101738.13;10527654;28;20032;-82
2023/05/08 20:21:11;;;;;;;28.35;18.77;;;;;;;15.33;100.00;101731.06;10521992;28;20492;-83
2023/05/08 20:26:12;;;;;;;25.10;20.42;;;;;;;15.30;100.00;101719.47;10524311;28;20062;-83
2023/05/08 20:31:12;;;;;;;31.05;20.48;;;;;;;15.25;100.00;101727.19;10526682;28;20488;-82
2023/05/08 20:36:12;;;;;;;28.23;20.45;;;;;;;15.18;100.00;101730.41;10514556;28;20076;-84
2023/05/08 20:41:13;;;;;;;31.88;20.27;;;;;;;15.15;100.00;101730.28;10525757;28;20078;-83
2023/05/08 20:46:13;;;;;;;27.25;20.98;;;;;;;15.12;100.00;101734.59;10509098;28;20145;-82
2023/05/08 20:51:14;;;;;;;25.30;20.73;;;;;;;15.10;100.00;101749.44;10494837;28;20032;-82
2023/05/08 20:56:14;;;;;;;29.10;20.70;;;;;;;15.15;100.00;101735.56;10522965;28;20119;-82
2023/05/08 21:01:15;;;;;;;29.55;19.48;;;;;;;15.19;100.00;101748.03;10525456;28;20128;-81
2023/05/08 21:06:15;;;;;;;33.40;19.65;;;;;;;15.23;100.00;101734.16;10521418;28;20074;-82
2023/05/08 21:11:16;;;;;;;25.23;19.08;;;;;;;15.19;100.00;101729.56;10522487;28;20108;-81
2023/05/08 21:16:16;;;;;;;24.33;19.05;;;;;;;15.15;100.00;101731.16;10508381;28;20109;-82
2023/05/08 21:21:18;;;;;;;33.78;23.55;;;;;;;15.12;100.00;101731.94;10526352;28;20047;-82
2023/05/08 21:26:19;;;;;;;41.72;28.38;;;;;;;15.14;100.00;101720.56;10524372;28;20040;-82
2023/05/08 21:31:20;;;;;;;50.05;32.83;;;;;;;15.14;100.00;101718.81;10508495;28;20040;-81
2023/05/08 21:36:21;;;;;;;54.17;30.15;;;;;;;15.18;100.00;101712.84;10511460;28;20051;-81
2023/05/08 21:41:21;;;;;;;43.35;27.00;;;;;;;15.15;100.00;101699.53;10489686;28;20117;-81
2023/05/08 21:46:22;;;;;;;51.97;28.65;;;;;;;15.15;100.00;101690.72;10512403;28;20127;-82
2023/05/08 21:51:22;;;;;;;45.25;29.63;;;;;;;15.13;100.00;101677.47;10526855;28;20075;-82
2023/05/08 21:56:23;;;;;;;39.78;24.80;;;;;;;15.03;100.00;101670.00;10515504;28;20501;-82
2023/05/08 22:01:23;;;;;;;48.78;24.20;;;;;;;14.95;100.00;101667.94;10524641;28;20044;-81
2023/05/08 22:06:24;;;;;;;41.72;24.77;;;;;;;14.80;100.00;101668.22;10506612;28;20410;-81
2023/05/08 22:11:24;;;;;;;47.17;29.70;;;;;;;14.62;100.00;101673.53;10524583;28;20561;-81
2023/05/08 22:16:25;;;;;;;50.97;30.42;;;;;;;14.54;100.00;101683.75;10495230;28;20181;-82
2023/05/08 22:21:28;;;;;;;60.67;31.70;;;;;;;14.58;100.00;101687.41;10524318;28;20044;-81
2023/05/08 22:26:29;;;;;;;50.25;29.30;;;;;;;14.58;100.00;101684.75;10520416;28;20442;-81